createdAt,value
2022-10-04T00:01:08.629Z,1.60
2022-10-04T00:03:41.955Z,1.77
2022-10-04T00:06:17.980Z,2.00
2022-10-04T00:08:50.658Z,1.42
2022-10-04T00:14:17.378Z,1.60
2022-10-04T00:16:45.444Z,1.20
2022-10-04T00:19:40.908Z,1.55
2022-10-04T00:22:22.723Z,1.00
2022-10-04T00:25:20.970Z,1.85
2022-10-04T00:28:36.424Z,1.20
2022-10-04T00:31:10.313Z,2.10
2022-10-04T00:33:39.358Z,1.83
2022-10-04T00:36:44.659Z,2.10
2022-10-04T00:39:50.969Z,1.88
2022-10-04T00:42:39.601Z,1.65
2022-10-04T00:45:15.321Z,1.88
2022-10-04T00:48:01.849Z,1.60
2022-10-04T00:50:35.617Z,1.85
2022-10-04T00:53:13.562Z,1.48
2022-10-04T00:55:47.897Z,1.80
2022-10-04T00:58:22.001Z,1.35
2022-10-04T01:00:50.709Z,1.65
2022-10-04T01:03:25.192Z,2.03
2022-10-04T01:05:58.084Z,1.60
2022-10-04T01:08:31.207Z,2.00
2022-10-04T01:11:02.422Z,1.67
2022-10-04T01:13:39.495Z,1.42
2022-10-04T01:16:15.409Z,1.90
2022-10-04T01:18:43.522Z,1.98
2022-10-04T01:21:27.016Z,1.63
2022-10-04T01:24:22.130Z,1.42
2022-10-04T01:26:51.757Z,2.05
2022-10-04T01:29:26.316Z,1.77
2022-10-04T01:31:56.119Z,1.63
2022-10-04T01:34:25.206Z,1.95
2022-10-04T01:36:55.519Z,1.50
2022-10-04T01:39:26.728Z,1.58
2022-10-04T01:42:01.611Z,1.50
2022-10-04T01:44:34.241Z,2.35
2022-10-04T01:47:06.531Z,1.20
2022-10-04T01:49:37.665Z,1.65
2022-10-04T01:52:09.798Z,1.60
2022-10-04T01:54:44.370Z,1.25
2022-10-04T01:57:16.458Z,1.30
2022-10-04T01:59:50.760Z,1.33
2022-10-04T02:02:30.249Z,1.38
2022-10-04T02:05:00.504Z,1.80
2022-10-04T02:07:32.802Z,2.03
2022-10-04T02:10:06.095Z,2.20
2022-10-04T02:12:35.594Z,1.90
2022-10-04T02:15:07.765Z,1.52
2022-10-04T02:17:40.792Z,1.80
2022-10-04T02:20:14.878Z,1.30
2022-10-04T02:22:44.194Z,1.48
2022-10-04T02:25:15.102Z,1.38
2022-10-04T02:27:42.833Z,1.33
2022-10-04T02:30:13.472Z,1.33
2022-10-04T02:32:57.597Z,1.67
2022-10-04T02:35:28.142Z,1.35
2022-10-04T02:38:04.140Z,1.65
2022-10-04T02:40:40.649Z,1.45
2022-10-04T02:43:15.242Z,1.50
2022-10-04T02:45:50.458Z,1.75
2022-10-04T02:48:36.735Z,1.80
2022-10-04T02:51:16.902Z,1.45
2022-10-04T02:53:52.396Z,1.80
2022-10-04T02:56:24.449Z,1.63
2022-10-04T02:58:52.922Z,2.17
2022-10-04T03:01:27.675Z,1.90
2022-10-04T03:03:57.881Z,2.03
2022-10-04T03:06:32.243Z,1.52
2022-10-04T03:09:04.080Z,2.08
2022-10-04T03:11:36.581Z,1.80
2022-10-04T03:14:08.924Z,1.73
2022-10-04T03:16:39.459Z,1.70
2022-10-04T03:19:08.996Z,1.45
2022-10-04T03:21:40.682Z,1.80
2022-10-04T03:24:11.688Z,1.48
2022-10-04T03:26:44.389Z,1.35
2022-10-04T03:29:14.890Z,1.50
2022-10-04T03:31:45.761Z,1.67
2022-10-04T03:34:18.715Z,1.65
2022-10-04T03:36:49.177Z,1.70
2022-10-04T03:39:27.685Z,1.30
2022-10-04T03:41:58.532Z,1.42
2022-10-04T03:44:26.697Z,1.45
2022-10-04T03:46:54.323Z,1.33
2022-10-04T03:49:31.314Z,1.83
2022-10-04T03:52:00.577Z,1.55
2022-10-04T03:54:29.359Z,2.15
2022-10-04T03:57:00.238Z,1.60
2022-10-04T03:59:29.094Z,1.25
2022-10-04T04:02:07.018Z,1.38
2022-10-04T04:04:44.013Z,1.90
2022-10-04T04:07:18.320Z,1.58
2022-10-04T04:09:51.841Z,1.85
2022-10-04T04:12:27.069Z,1.70
2022-10-04T04:14:55.435Z,1.58
2022-10-04T04:17:47.927Z,1.50
2022-10-04T04:20:23.148Z,1.58
2022-10-04T04:22:59.255Z,1.23
2022-10-04T04:25:29.449Z,2.00
2022-10-04T04:28:07.056Z,2.22
2022-10-04T04:30:38.513Z,2.40
2022-10-04T04:33:16.642Z,1.80
2022-10-04T04:35:46.745Z,1.48
2022-10-04T04:41:11.739Z,1.40
2022-10-04T04:43:44.569Z,1.55
2022-10-04T04:46:26.999Z,1.70
2022-10-04T04:49:01.256Z,1.67
2022-10-04T04:51:29.731Z,1.83
2022-10-04T04:53:57.979Z,1.77
2022-10-04T04:56:29.498Z,1.55
2022-10-04T04:59:03.167Z,1.70
2022-10-04T05:01:35.243Z,2.05
2022-10-04T05:04:05.096Z,1.85
2022-10-04T05:06:35.072Z,1.40
2022-10-04T05:09:04.161Z,1.88
2022-10-04T05:11:35.526Z,2.30
2022-10-04T05:14:07.519Z,2.47
2022-10-04T05:16:41.411Z,2.50
2022-10-04T05:19:16.960Z,2.53
2022-10-04T05:21:47.780Z,2.30
2022-10-04T05:24:22.714Z,1.95
2022-10-04T05:26:53.243Z,1.90
2022-10-04T05:29:26.756Z,2.22
2022-10-04T05:32:03.502Z,1.85
2022-10-04T05:34:37.054Z,2.08
2022-10-04T05:37:22.443Z,2.28
2022-10-04T05:40:03.857Z,2.25
2022-10-04T05:42:38.437Z,2.13
2022-10-04T05:45:18.355Z,2.28
2022-10-04T05:47:49.328Z,1.83
2022-10-04T05:50:20.180Z,2.28
2022-10-04T05:52:51.440Z,2.58
2022-10-04T05:55:29.535Z,2.35
2022-10-04T05:58:18.454Z,2.38
2022-10-04T06:01:05.706Z,2.60
2022-10-04T06:03:50.230Z,2.25
2022-10-04T06:06:24.751Z,1.90
2022-10-04T06:09:09.254Z,2.38
2022-10-04T06:11:51.267Z,2.35
2022-10-04T06:14:48.215Z,2.35
2022-10-04T06:17:32.516Z,2.03
2022-10-04T06:20:30.284Z,3.85
2022-10-04T06:23:01.680Z,2.38
2022-10-04T06:25:32.735Z,2.13
2022-10-04T06:28:12.417Z,2.28
2022-10-04T06:30:57.936Z,2.80
2022-10-04T06:33:47.442Z,2.08
2022-10-04T06:36:42.990Z,2.38
2022-10-04T06:39:32.662Z,1.92
2022-10-04T06:42:15.180Z,2.47
2022-10-04T06:44:56.062Z,2.30
2022-10-04T06:47:43.618Z,1.85
2022-10-04T06:50:26.434Z,2.80
2022-10-04T06:53:05.395Z,2.28
2022-10-04T06:55:50.671Z,2.53
2022-10-04T06:59:04.551Z,2.92
2022-10-04T07:01:34.271Z,2.60
2022-10-04T07:04:11.504Z,2.70
2022-10-04T07:06:48.052Z,3.00
2022-10-04T07:09:22.838Z,1.67
2022-10-04T07:11:54.638Z,4.13
2022-10-04T07:14:30.871Z,6.50
2022-10-04T07:17:05.149Z,3.88
2022-10-04T07:19:38.193Z,3.42
2022-10-04T07:22:17.883Z,2.67
2022-10-04T07:24:55.799Z,2.13
2022-10-04T07:27:31.010Z,2.13
2022-10-04T07:30:00.144Z,2.72
2022-10-04T07:35:22.002Z,2.67
2022-10-04T07:37:58.634Z,2.08
2022-10-04T07:40:31.303Z,2.20
2022-10-04T07:43:04.733Z,2.65
2022-10-04T07:45:35.064Z,3.10
2022-10-04T07:48:05.347Z,2.53
2022-10-04T07:50:40.069Z,2.40
2022-10-04T07:53:13.016Z,2.83
2022-10-04T07:55:50.960Z,2.47
2022-10-04T07:58:42.082Z,3.08
2022-10-04T08:01:26.902Z,2.25
2022-10-04T08:04:21.185Z,2.85
2022-10-04T08:06:57.896Z,2.28
2022-10-04T08:09:34.853Z,2.70
2022-10-04T08:12:12.421Z,2.22
2022-10-04T08:14:54.363Z,2.40
2022-10-04T08:17:34.800Z,1.98
2022-10-04T08:20:22.000Z,2.63
2022-10-04T08:23:00.690Z,4.38
2022-10-04T08:25:40.211Z,2.35
2022-10-04T08:28:40.174Z,3.05
2022-10-04T08:31:17.928Z,3.25
2022-10-04T08:33:58.613Z,2.90
2022-10-04T08:36:40.629Z,2.33
2022-10-04T08:39:23.044Z,3.72
2022-10-04T08:42:35.474Z,3.05
2022-10-04T08:45:37.844Z,2.47
2022-10-04T08:48:34.145Z,2.60
2022-10-04T08:51:27.531Z,2.53
2022-10-04T08:54:22.367Z,3.15
2022-10-04T08:57:05.336Z,2.53
2022-10-04T08:59:57.933Z,2.83
2022-10-04T09:02:48.532Z,2.90
2022-10-04T09:05:33.211Z,2.40
2022-10-04T09:08:41.219Z,2.10
2022-10-04T09:11:42.777Z,3.15
2022-10-04T09:14:30.745Z,2.78
2022-10-04T09:17:21.804Z,2.55
2022-10-04T09:20:05.019Z,2.70
2022-10-04T09:22:50.034Z,3.08
2022-10-04T09:25:36.186Z,2.95
2022-10-04T09:28:39.208Z,2.10
2022-10-04T09:31:24.685Z,2.20
2022-10-04T09:34:11.968Z,2.17
2022-10-04T09:37:02.306Z,2.38
2022-10-04T09:40:00.399Z,3.45
2022-10-04T09:42:45.418Z,2.75
2022-10-04T09:45:28.304Z,2.88
2022-10-04T09:48:25.047Z,2.45
2022-10-04T09:51:20.408Z,2.40
2022-10-04T09:54:00.009Z,2.47
2022-10-04T09:56:59.146Z,2.20
2022-10-04T09:59:50.424Z,2.58
2022-10-04T10:02:59.724Z,2.70
2022-10-04T10:05:36.222Z,2.13
2022-10-04T10:08:18.884Z,2.90
2022-10-04T10:11:25.126Z,1.92
2022-10-04T10:14:23.254Z,2.70
2022-10-04T10:17:02.442Z,2.80
2022-10-04T10:19:55.027Z,2.90
2022-10-04T10:22:39.542Z,2.90
2022-10-04T10:25:18.669Z,2.03
2022-10-04T10:28:25.970Z,2.25
2022-10-04T10:31:15.294Z,1.83
2022-10-04T10:34:08.247Z,1.88
2022-10-04T10:36:47.406Z,2.10
2022-10-04T10:39:41.858Z,2.22
2022-10-04T10:42:30.978Z,2.85
2022-10-04T10:45:16.491Z,2.45
2022-10-04T10:47:53.990Z,2.35
2022-10-04T10:51:03.327Z,2.13
2022-10-04T10:54:00.128Z,1.88
2022-10-04T10:56:51.544Z,1.80
2022-10-04T11:00:00.592Z,2.03
2022-10-04T11:03:13.037Z,1.95
2022-10-04T11:06:01.882Z,1.75
2022-10-04T11:08:56.968Z,2.10
2022-10-04T11:11:49.887Z,1.98
2022-10-04T11:14:37.979Z,2.00
2022-10-04T11:17:27.472Z,1.70
2022-10-04T11:20:41.345Z,2.33
2022-10-04T11:23:39.059Z,2.55
2022-10-04T11:26:37.636Z,2.05
2022-10-04T11:29:20.267Z,2.65
2022-10-04T11:32:41.700Z,2.20
2022-10-04T11:35:45.981Z,2.17
2022-10-04T11:38:27.845Z,2.00
2022-10-04T11:41:14.635Z,1.52
2022-10-04T11:44:07.592Z,2.55
2022-10-04T11:46:43.570Z,1.73
2022-10-04T11:49:35.640Z,2.75
2022-10-04T11:52:43.122Z,2.88
2022-10-04T11:55:39.269Z,2.05
2022-10-04T11:58:17.875Z,2.17
2022-10-04T12:01:20.430Z,2.45
2022-10-04T12:04:08.789Z,2.17
2022-10-04T12:06:57.532Z,2.05
2022-10-04T12:09:35.243Z,2.47
2022-10-04T12:12:38.111Z,2.35
2022-10-04T12:15:40.647Z,1.95
2022-10-04T12:18:28.536Z,1.90
2022-10-04T12:21:12.508Z,2.50
2022-10-04T12:24:14.535Z,2.45
2022-10-04T12:27:02.904Z,1.85
2022-10-04T12:29:45.378Z,1.35
2022-10-04T12:32:17.718Z,2.08
2022-10-04T12:34:52.724Z,1.80
2022-10-04T12:37:30.791Z,1.90
2022-10-04T12:40:22.808Z,2.20
2022-10-04T12:42:58.672Z,1.67
2022-10-04T12:45:43.324Z,1.80
2022-10-04T12:48:25.710Z,2.10
2022-10-04T12:51:02.888Z,2.10
2022-10-04T12:53:43.307Z,2.03
2022-10-04T12:56:33.147Z,1.42
2022-10-04T12:59:11.578Z,1.50
2022-10-04T13:01:51.291Z,1.95
2022-10-04T13:04:31.080Z,2.03
2022-10-04T13:07:15.783Z,1.50
2022-10-04T13:10:19.323Z,1.35
2022-10-04T13:13:15.497Z,1.90
2022-10-04T13:18:48.482Z,2.03
2022-10-04T13:21:23.648Z,1.90
2022-10-04T13:24:04.579Z,1.92
2022-10-04T13:26:44.127Z,1.92
2022-10-04T13:29:23.893Z,2.05
2022-10-04T13:31:57.191Z,1.98
2022-10-04T13:34:35.757Z,2.10
2022-10-04T13:37:21.866Z,1.90
2022-10-04T13:40:22.715Z,2.15
2022-10-04T13:43:06.840Z,2.38
2022-10-04T13:45:45.169Z,1.85
2022-10-04T13:48:30.614Z,1.55
2022-10-04T13:51:10.842Z,1.88
2022-10-04T13:54:09.972Z,1.95
2022-10-04T13:56:54.642Z,1.90
2022-10-04T13:59:34.550Z,2.13
2022-10-04T14:02:24.860Z,2.28
2022-10-04T14:05:29.654Z,2.22
2022-10-04T14:08:37.501Z,1.60
2022-10-04T14:11:37.254Z,2.30
2022-10-04T14:14:23.538Z,2.05
2022-10-04T14:17:15.083Z,2.00
2022-10-04T14:20:10.623Z,2.05
2022-10-04T14:23:09.094Z,2.72
2022-10-04T14:25:55.990Z,1.75
2022-10-04T14:28:52.608Z,2.00
2022-10-04T14:31:37.084Z,1.85
2022-10-04T14:34:34.307Z,1.98
2022-10-04T14:37:27.804Z,2.50
2022-10-04T14:40:21.071Z,2.17
2022-10-04T14:43:14.727Z,3.03
2022-10-04T14:45:53.498Z,2.42
2022-10-04T14:48:58.469Z,2.85
2022-10-04T14:51:40.786Z,2.78
2022-10-04T14:54:13.770Z,3.83
2022-10-04T14:56:52.301Z,1.77
2022-10-04T14:59:42.902Z,2.30
2022-10-04T15:02:36.119Z,2.08
2022-10-04T15:05:31.740Z,1.73
2022-10-04T15:08:25.048Z,2.65
2022-10-04T15:10:55.780Z,2.08
2022-10-04T15:13:31.815Z,1.88
2022-10-04T15:16:14.000Z,2.47
2022-10-04T15:18:53.458Z,2.08
2022-10-04T15:21:41.431Z,2.03
2022-10-04T15:24:25.505Z,2.03
2022-10-04T15:27:32.793Z,2.15
2022-10-04T15:30:12.480Z,1.95
2022-10-04T15:32:50.374Z,1.75
2022-10-04T15:35:27.444Z,1.73
2022-10-04T15:38:01.773Z,2.22
2022-10-04T15:40:38.225Z,2.28
2022-10-04T15:43:25.977Z,1.77
2022-10-04T15:46:04.679Z,1.88
2022-10-04T15:48:50.049Z,2.03
2022-10-04T15:51:36.729Z,1.63
2022-10-04T15:55:02.151Z,1.60
2022-10-04T15:57:41.888Z,1.92
2022-10-04T16:00:15.533Z,2.40
2022-10-04T16:03:10.682Z,1.60
2022-10-04T16:05:45.009Z,1.98
2022-10-04T16:08:36.993Z,1.83
2022-10-04T16:11:17.620Z,1.85
2022-10-04T16:13:58.352Z,1.98
2022-10-04T16:16:50.495Z,2.40
2022-10-04T16:19:31.460Z,2.35
2022-10-04T16:22:11.111Z,3.13
2022-10-04T16:24:48.878Z,3.65
2022-10-04T16:27:49.486Z,4.82
2022-10-04T16:30:27.614Z,3.47
2022-10-04T16:33:33.454Z,3.45
2022-10-04T16:36:12.558Z,2.65
2022-10-04T16:39:07.466Z,2.70
2022-10-04T16:41:44.301Z,2.72
2022-10-04T16:44:30.032Z,2.90
2022-10-04T16:47:03.242Z,2.65
2022-10-04T16:49:41.088Z,2.47
2022-10-04T16:52:50.798Z,2.08
2022-10-04T16:55:30.876Z,3.22
2022-10-04T16:58:41.431Z,2.60
2022-10-04T17:01:55.450Z,2.75
2022-10-04T17:04:44.593Z,3.30
2022-10-04T17:07:23.183Z,2.88
2022-10-04T17:10:02.873Z,3.42
2022-10-04T17:12:37.223Z,4.50
2022-10-04T17:15:27.440Z,5.45
2022-10-04T17:18:06.032Z,3.90
2022-10-04T17:20:50.732Z,3.60
2022-10-04T17:23:34.614Z,3.75
2022-10-04T17:26:14.924Z,4.00
2022-10-04T17:28:53.184Z,4.05
2022-10-04T17:31:31.676Z,4.90
2022-10-04T17:34:10.245Z,6.20
2022-10-04T17:36:45.969Z,6.07
2022-10-04T17:39:35.508Z,3.92
2022-10-04T17:42:25.293Z,4.30
2022-10-04T17:45:21.955Z,4.72
2022-10-04T17:48:17.461Z,5.47
2022-10-04T17:51:13.802Z,4.43
2022-10-04T17:54:05.533Z,3.67
2022-10-04T17:56:37.680Z,5.07
2022-10-04T17:59:12.015Z,5.38
2022-10-04T18:01:43.893Z,6.32
2022-10-04T18:04:22.158Z,7.30
2022-10-04T18:06:57.039Z,5.85
2022-10-04T18:09:36.330Z,4.85
2022-10-04T18:12:07.401Z,5.07
2022-10-04T18:14:58.469Z,4.88
2022-10-04T18:17:33.042Z,5.00
2022-10-04T18:20:26.448Z,6.35
2022-10-04T18:23:01.248Z,4.55
2022-10-04T18:25:32.086Z,4.78
2022-10-04T18:28:12.375Z,5.03
2022-10-04T18:30:58.806Z,5.28
2022-10-04T18:33:32.454Z,5.60
2022-10-04T18:36:07.243Z,5.03
2022-10-04T18:38:36.108Z,4.07
2022-10-04T18:41:18.904Z,4.35
2022-10-04T18:43:52.962Z,3.85
2022-10-04T18:46:22.893Z,3.42
2022-10-04T18:48:56.623Z,3.30
2022-10-04T18:51:28.482Z,2.97
2022-10-04T18:54:10.419Z,3.05
2022-10-04T18:56:48.130Z,4.13
2022-10-04T18:59:46.839Z,2.67
2022-10-04T19:02:26.166Z,3.35
2022-10-04T19:05:02.251Z,3.08
2022-10-04T19:07:38.758Z,3.08
2022-10-04T19:10:19.999Z,3.78
2022-10-04T19:12:58.849Z,2.50
2022-10-04T19:15:37.598Z,2.80
2022-10-04T19:18:20.988Z,2.10
2022-10-04T19:20:55.697Z,3.58
2022-10-04T19:23:37.448Z,2.60
2022-10-04T19:26:30.948Z,2.90
2022-10-04T19:29:19.284Z,2.92
2022-10-04T19:31:53.469Z,3.33
2022-10-04T19:34:36.107Z,2.92
2022-10-04T19:37:11.762Z,3.17
2022-10-04T19:39:48.416Z,3.75
2022-10-04T19:42:20.211Z,4.65
2022-10-04T19:45:06.858Z,3.25
2022-10-04T19:47:43.326Z,3.55
2022-10-04T19:50:21.085Z,3.38
2022-10-04T19:52:53.494Z,3.15
2022-10-04T19:55:26.245Z,3.42
2022-10-04T19:58:07.003Z,2.70
2022-10-04T20:00:37.472Z,3.17
2022-10-04T20:03:11.605Z,3.60
2022-10-04T20:05:44.299Z,3.67
2022-10-04T20:08:13.582Z,4.18
2022-10-04T20:10:42.840Z,4.55
2022-10-04T20:13:23.478Z,3.80
2022-10-04T20:15:54.726Z,3.45
2022-10-04T20:19:10.777Z,3.30
2022-10-04T20:21:38.926Z,2.95
2022-10-04T20:24:16.842Z,2.78
2022-10-04T20:27:03.363Z,2.70
2022-10-04T20:30:04.438Z,3.05
2022-10-04T20:32:56.614Z,3.05
2022-10-04T20:36:08.370Z,3.05
2022-10-04T20:38:59.414Z,2.80
2022-10-04T20:42:23.348Z,2.58
2022-10-04T20:44:55.378Z,2.80
2022-10-04T20:47:38.058Z,3.45
2022-10-04T20:50:27.073Z,2.47
2022-10-04T20:52:58.783Z,2.53
2022-10-04T20:55:29.399Z,3.08
2022-10-04T20:57:59.381Z,2.42
2022-10-04T21:00:29.125Z,2.97
2022-10-04T21:03:19.213Z,2.78
2022-10-04T21:06:19.664Z,1.95
2022-10-04T21:08:49.868Z,3.15
2022-10-04T21:11:21.898Z,2.47
2022-10-04T21:13:52.987Z,2.55
2022-10-04T21:16:48.115Z,3.53
2022-10-04T21:19:50.193Z,2.28
2022-10-04T21:22:38.971Z,3.17
2022-10-04T21:25:29.178Z,2.28
2022-10-04T21:28:24.600Z,2.58
2022-10-04T21:30:57.839Z,2.45
2022-10-04T21:33:27.353Z,2.97
2022-10-04T21:35:55.680Z,3.20
2022-10-04T21:38:24.953Z,3.58
2022-10-04T21:40:52.801Z,2.53
2022-10-04T21:43:20.971Z,1.88
2022-10-04T21:45:49.015Z,2.42
2022-10-04T21:48:17.464Z,2.45
2022-10-04T21:50:45.587Z,2.50
2022-10-04T21:53:13.755Z,2.33
2022-10-04T21:55:42.935Z,2.72
2022-10-04T21:58:10.768Z,2.40
2022-10-04T22:00:40.225Z,2.72
2022-10-04T22:03:08.500Z,2.08
2022-10-04T22:05:36.208Z,3.38
2022-10-04T22:08:03.928Z,2.38
2022-10-04T22:10:31.765Z,3.20
2022-10-04T22:13:00.755Z,2.97
2022-10-04T22:15:29.651Z,2.92
2022-10-04T22:17:57.725Z,2.47
2022-10-04T22:20:26.090Z,2.53
2022-10-04T22:22:57.541Z,2.75
2022-10-04T22:25:28.320Z,2.30
2022-10-04T22:27:56.094Z,2.15
2022-10-04T22:30:28.304Z,2.75
2022-10-04T22:32:58.151Z,2.65
2022-10-04T22:35:26.070Z,2.15
2022-10-04T22:37:55.758Z,2.53
2022-10-04T22:40:25.561Z,2.30
2022-10-04T22:42:55.335Z,2.50
2022-10-04T22:45:27.347Z,2.88
2022-10-04T22:47:58.471Z,3.40
2022-10-04T22:50:30.666Z,2.65
2022-10-04T22:53:02.826Z,2.60
2022-10-04T22:55:30.618Z,3.05
2022-10-04T22:57:58.378Z,2.58
2022-10-04T23:00:27.406Z,2.50
2022-10-04T23:02:55.905Z,1.92
2022-10-04T23:05:23.595Z,2.60
2022-10-04T23:07:51.294Z,2.72
2022-10-04T23:10:20.480Z,3.00
2022-10-04T23:12:49.559Z,3.67
2022-10-04T23:15:19.699Z,2.30
2022-10-04T23:17:55.079Z,2.67
2022-10-04T23:20:23.445Z,2.10
2022-10-04T23:22:53.789Z,2.58
2022-10-04T23:25:24.399Z,2.53
2022-10-04T23:27:52.410Z,2.75
2022-10-04T23:30:22.565Z,2.75
2022-10-04T23:32:54.090Z,2.70
2022-10-04T23:35:25.477Z,2.42
2022-10-04T23:37:54.260Z,2.95
2022-10-04T23:40:24.302Z,3.00
2022-10-04T23:42:56.381Z,2.83
2022-10-04T23:45:26.050Z,2.63
2022-10-04T23:47:57.286Z,2.15
2022-10-04T23:50:27.818Z,2.53
2022-10-04T23:53:02.188Z,2.70
2022-10-04T23:55:33.194Z,2.42
2022-10-04T23:58:01.070Z,1.80
